sensor_id;sensor_type;location;lat;lon;timestamp;temperature;humidity
64501;DHT22;50874;24.150;-110.320;2023-04-01T00:01:02;23.60;92.20
64501;DHT22;50874;24.150;-110.320;2023-04-01T00:03:33;23.60;92.20
64501;DHT22;50874;24.150;-110.320;2023-04-01T00:06:00;23.80;92.70
64501;DHT22;50874;24.150;-110.320;2023-04-01T00:08:29;23.80;92.20
64501;DHT22;50874;24.150;-110.320;2023-04-01T00:10:56;23.80;92.60
64501;DHT22;50874;24.150;-110.320;2023-04-01T00:13:24;23.50;93.10
64501;DHT22;50874;24.150;-110.320;2023-04-01T00:15:52;23.70;92.80
64501;DHT22;50874;24.150;-110.320;2023-04-01T00:18:19;23.80;92.70
64501;DHT22;50874;24.150;-110.320;2023-04-01T00:20:47;23.60;93.30
64501;DHT22;50874;24.150;-110.320;2023-04-01T00:23:18;23.50;93.40
64501;DHT22;50874;24.150;-110.320;2023-04-01T00:25:45;23.20;93.10
64501;DHT22;50874;24.150;-110.320;2023-04-01T00:28:17;23.20;93.50
64501;DHT22;50874;24.150;-110.320;2023-04-01T00:30:44;23.10;93.70
64501;DHT22;50874;24.150;-110.320;2023-04-01T00:33:10;23.00;94.50
64501;DHT22;50874;24.150;-110.320;2023-04-01T00:35:37;23.10;94.00
64501;DHT22;50874;24.150;-110.320;2023-04-01T00:38:05;23.00;94.20
64501;DHT22;50874;24.150;-110.320;2023-04-01T00:40:35;22.70;93.90
64501;DHT22;50874;24.150;-110.320;2023-04-01T00:43:03;22.60;94.10
64501;DHT22;50874;24.150;-110.320;2023-04-01T00:45:36;22.40;94.50
64501;DHT22;50874;24.150;-110.320;2023-04-01T00:48:24;22.40;94.70
64501;DHT22;50874;24.150;-110.320;2023-04-01T00:53:49;22.30;93.30
64501;DHT22;50874;24.150;-110.320;2023-04-01T00:56:20;22.30;93.70
64501;DHT22;50874;24.150;-110.320;2023-04-01T00:58:52;22.10;94.40
64501;DHT22;50874;24.150;-110.320;2023-04-01T01:01:22;21.90;95.60
64501;DHT22;50874;24.150;-110.320;2023-04-01T01:03:54;21.80;95.90
64501;DHT22;50874;24.150;-110.320;2023-04-01T01:06:24;21.80;96.60
64501;DHT22;50874;24.150;-110.320;2023-04-01T01:14:31;21.80;97.20
64501;DHT22;50874;24.150;-110.320;2023-04-01T01:17:19;21.90;97.60
64501;DHT22;50874;24.150;-110.320;2023-04-01T01:25:33;21.80;98.90
64501;DHT22;50874;24.150;-110.320;2023-04-01T01:36:23;21.70;99.20
64501;DHT22;50874;24.150;-110.320;2023-04-01T01:38:54;21.60;98.80
64501;DHT22;50874;24.150;-110.320;2023-04-01T01:41:24;21.50;98.70
64501;DHT22;50874;24.150;-110.320;2023-04-01T01:43:54;21.40;99.40
64501;DHT22;50874;24.150;-110.320;2023-04-01T01:46:25;21.40;99.30
64501;DHT22;50874;24.150;-110.320;2023-04-01T01:48:52;21.40;99.30
64501;DHT22;50874;24.150;-110.320;2023-04-01T01:51:21;21.30;99.40
64501;DHT22;50874;24.150;-110.320;2023-04-01T01:53:48;21.20;99.50
64501;DHT22;50874;24.150;-110.320;2023-04-01T01:56:18;21.20;99.50
64501;DHT22;50874;24.150;-110.320;2023-04-01T01:58:48;21.10;99.80
64501;DHT22;50874;24.150;-110.320;2023-04-01T02:01:24;21.20;99.90
64501;DHT22;50874;24.150;-110.320;2023-04-01T02:03:52;21.10;99.90
64501;DHT22;50874;24.150;-110.320;2023-04-01T02:06:28;21.10;99.90
64501;DHT22;50874;24.150;-110.320;2023-04-01T02:09:07;21.00;99.90
64501;DHT22;50874;24.150;-110.320;2023-04-01T02:12:04;21.10;99.80
64501;DHT22;50874;24.150;-110.320;2023-04-01T02:17:09;21.00;99.90
64501;DHT22;50874;24.150;-110.320;2023-04-01T02:19:57;21.00;99.90
64501;DHT22;50874;24.150;-110.320;2023-04-01T02:22:28;21.00;99.90
64501;DHT22;50874;24.150;-110.320;2023-04-01T02:25:06;20.90;99.90
64501;DHT22;50874;24.150;-110.320;2023-04-01T02:27:33;20.90;99.90
64501;DHT22;50874;24.150;-110.320;2023-04-01T02:29:59;20.90;99.90
64501;DHT22;50874;24.150;-110.320;2023-04-01T02:32:27;20.90;99.90
64501;DHT22;50874;24.150;-110.320;2023-04-01T02:34:54;20.90;99.90
64501;DHT22;50874;24.150;-110.320;2023-04-01T02:37:22;20.80;99.90
64501;DHT22;50874;24.150;-110.320;2023-04-01T02:39:49;20.80;99.90
64501;DHT22;50874;24.150;-110.320;2023-04-01T02:42:16;20.80;99.90
64501;DHT22;50874;24.150;-110.320;2023-04-01T02:44:42;20.70;99.90
64501;DHT22;50874;24.150;-110.320;2023-04-01T02:47:08;20.70;99.90
64501;DHT22;50874;24.150;-110.320;2023-04-01T02:49:35;20.70;99.90
64501;DHT22;50874;24.150;-110.320;2023-04-01T02:52:01;20.70;99.90
64501;DHT22;50874;24.150;-110.320;2023-04-01T02:54:28;20.70;99.90
64501;DHT22;50874;24.150;-110.320;2023-04-01T02:56:54;20.60;99.90
64501;DHT22;50874;24.150;-110.320;2023-04-01T02:59:21;20.60;99.90
64501;DHT22;50874;24.150;-110.320;2023-04-01T03:01:47;20.50;99.90
64501;DHT22;50874;24.150;-110.320;2023-04-01T03:04:14;20.50;99.90
64501;DHT22;50874;24.150;-110.320;2023-04-01T03:06:40;20.50;99.90
64501;DHT22;50874;24.150;-110.320;2023-04-01T03:09:07;20.50;99.90
64501;DHT22;50874;24.150;-110.320;2023-04-01T03:11:33;20.50;99.90
64501;DHT22;50874;24.150;-110.320;2023-04-01T03:14:00;20.40;99.90
64501;DHT22;50874;24.150;-110.320;2023-04-01T03:16:31;20.40;99.90
64501;DHT22;50874;24.150;-110.320;2023-04-01T03:18:58;20.30;99.90
64501;DHT22;50874;24.150;-110.320;2023-04-01T03:21:27;20.30;99.90
64501;DHT22;50874;24.150;-110.320;2023-04-01T03:23:54;20.30;99.90
64501;DHT22;50874;24.150;-110.320;2023-04-01T03:26:20;20.30;99.90
64501;DHT22;50874;24.150;-110.320;2023-04-01T03:28:47;20.20;99.90
64501;DHT22;50874;24.150;-110.320;2023-04-01T03:31:14;20.20;99.90
64501;DHT22;50874;24.150;-110.320;2023-04-01T03:33:42;20.20;99.90
64501;DHT22;50874;24.150;-110.320;2023-04-01T03:36:09;20.20;99.90
64501;DHT22;50874;24.150;-110.320;2023-04-01T03:38:37;20.20;99.90
64501;DHT22;50874;24.150;-110.320;2023-04-01T03:41:04;20.20;99.90
64501;DHT22;50874;24.150;-110.320;2023-04-01T03:43:30;20.20;99.90
64501;DHT22;50874;24.150;-110.320;2023-04-01T03:45:58;20.10;99.90
64501;DHT22;50874;24.150;-110.320;2023-04-01T03:48:25;20.10;99.90
64501;DHT22;50874;24.150;-110.320;2023-04-01T03:50:51;20.10;99.90
64501;DHT22;50874;24.150;-110.320;2023-04-01T03:53:18;20.20;99.90
64501;DHT22;50874;24.150;-110.320;2023-04-01T03:55:45;20.20;99.90
64501;DHT22;50874;24.150;-110.320;2023-04-01T03:58:11;20.20;99.90
64501;DHT22;50874;24.150;-110.320;2023-04-01T04:00:37;20.20;99.90
64501;DHT22;50874;24.150;-110.320;2023-04-01T04:03:05;20.10;99.90
64501;DHT22;50874;24.150;-110.320;2023-04-01T04:05:31;20.10;99.90
64501;DHT22;50874;24.150;-110.320;2023-04-01T04:07:58;20.00;99.90
64501;DHT22;50874;24.150;-110.320;2023-04-01T04:10:24;20.10;99.90
64501;DHT22;50874;24.150;-110.320;2023-04-01T04:12:51;20.10;99.90
64501;DHT22;50874;24.150;-110.320;2023-04-01T04:15:18;20.10;99.90
64501;DHT22;50874;24.150;-110.320;2023-04-01T04:17:46;20.10;99.90
64501;DHT22;50874;24.150;-110.320;2023-04-01T04:20:13;20.10;99.90
64501;DHT22;50874;24.150;-110.320;2023-04-01T04:22:39;20.10;99.90
64501;DHT22;50874;24.150;-110.320;2023-04-01T04:25:06;20.10;99.90
64501;DHT22;50874;24.150;-110.320;2023-04-01T04:27:33;20.10;99.90
64501;DHT22;50874;24.150;-110.320;2023-04-01T04:30:00;20.10;99.90
64501;DHT22;50874;24.150;-110.320;2023-04-01T04:32:26;20.10;99.90
64501;DHT22;50874;24.150;-110.320;2023-04-01T04:34:53;20.00;99.90
64501;DHT22;50874;24.150;-110.320;2023-04-01T04:37:19;20.10;99.90
64501;DHT22;50874;24.150;-110.320;2023-04-01T04:39:46;20.10;99.90
64501;DHT22;50874;24.150;-110.320;2023-04-01T04:42:12;20.10;99.90
64501;DHT22;50874;24.150;-110.320;2023-04-01T04:44:39;20.00;99.90
64501;DHT22;50874;24.150;-110.320;2023-04-01T04:47:05;20.00;99.90
64501;DHT22;50874;24.150;-110.320;2023-04-01T04:49:32;19.90;99.90
64501;DHT22;50874;24.150;-110.320;2023-04-01T04:51:58;19.90;99.90
64501;DHT22;50874;24.150;-110.320;2023-04-01T04:54:25;19.90;99.90
64501;DHT22;50874;24.150;-110.320;2023-04-01T04:56:52;19.80;99.90
64501;DHT22;50874;24.150;-110.320;2023-04-01T04:59:19;19.80;99.90
64501;DHT22;50874;24.150;-110.320;2023-04-01T05:01:45;19.70;99.90
64501;DHT22;50874;24.150;-110.320;2023-04-01T05:04:12;19.70;99.90
64501;DHT22;50874;24.150;-110.320;2023-04-01T05:06:38;19.70;99.90
64501;DHT22;50874;24.150;-110.320;2023-04-01T05:09:05;19.70;99.90
64501;DHT22;50874;24.150;-110.320;2023-04-01T05:11:31;19.70;99.90
64501;DHT22;50874;24.150;-110.320;2023-04-01T05:13:58;19.60;99.90
64501;DHT22;50874;24.150;-110.320;2023-04-01T05:16:24;19.60;99.90
64501;DHT22;50874;24.150;-110.320;2023-04-01T05:18:51;19.60;99.90
64501;DHT22;50874;24.150;-110.320;2023-04-01T05:21:17;19.50;99.90
64501;DHT22;50874;24.150;-110.320;2023-04-01T05:23:44;19.50;99.90
64501;DHT22;50874;24.150;-110.320;2023-04-01T05:26:13;19.50;99.90
64501;DHT22;50874;24.150;-110.320;2023-04-01T05:28:40;19.50;99.90
64501;DHT22;50874;24.150;-110.320;2023-04-01T05:31:07;19.40;99.90
64501;DHT22;50874;24.150;-110.320;2023-04-01T05:33:34;19.40;99.90
64501;DHT22;50874;24.150;-110.320;2023-04-01T05:36:15;19.30;99.90
64501;DHT22;50874;24.150;-110.320;2023-04-01T05:38:42;19.30;99.90
64501;DHT22;50874;24.150;-110.320;2023-04-01T05:41:11;19.30;99.90
64501;DHT22;50874;24.150;-110.320;2023-04-01T05:43:39;19.30;99.90
64501;DHT22;50874;24.150;-110.320;2023-04-01T05:46:06;19.30;99.90
64501;DHT22;50874;24.150;-110.320;2023-04-01T05:48:34;19.20;99.90
64501;DHT22;50874;24.150;-110.320;2023-04-01T05:51:04;19.30;99.90
64501;DHT22;50874;24.150;-110.320;2023-04-01T05:53:31;19.20;99.90
64501;DHT22;50874;24.150;-110.320;2023-04-01T05:56:01;19.20;99.90
64501;DHT22;50874;24.150;-110.320;2023-04-01T05:58:28;19.20;99.90
64501;DHT22;50874;24.150;-110.320;2023-04-01T06:01:07;19.20;99.90
64501;DHT22;50874;24.150;-110.320;2023-04-01T06:03:34;19.20;99.90
64501;DHT22;50874;24.150;-110.320;2023-04-01T06:06:00;19.20;99.90
64501;DHT22;50874;24.150;-110.320;2023-04-01T06:08:28;19.20;99.90
64501;DHT22;50874;24.150;-110.320;2023-04-01T06:19:40;19.10;99.90
64501;DHT22;50874;24.150;-110.320;2023-04-01T06:22:22;19.10;99.90
64501;DHT22;50874;24.150;-110.320;2023-04-01T06:28:18;19.10;99.90
64501;DHT22;50874;24.150;-110.320;2023-04-01T06:31:03;19.10;99.90
64501;DHT22;50874;24.150;-110.320;2023-04-01T06:33:45;19.10;99.90
64501;DHT22;50874;24.150;-110.320;2023-04-01T06:45:28;19.10;99.90
64501;DHT22;50874;24.150;-110.320;2023-04-01T06:56:19;19.10;99.90
64501;DHT22;50874;24.150;-110.320;2023-04-01T06:58:51;19.10;99.90
64501;DHT22;50874;24.150;-110.320;2023-04-01T07:04:00;19.10;99.90
64501;DHT22;50874;24.150;-110.320;2023-04-01T07:06:45;19.10;99.90
64501;DHT22;50874;24.150;-110.320;2023-04-01T07:09:20;19.10;99.90
64501;DHT22;50874;24.150;-110.320;2023-04-01T07:11:48;19.00;99.90
64501;DHT22;50874;24.150;-110.320;2023-04-01T07:14:37;19.00;99.90
64501;DHT22;50874;24.150;-110.320;2023-04-01T07:17:16;19.00;99.90
64501;DHT22;50874;24.150;-110.320;2023-04-01T07:20:05;19.00;99.90
64501;DHT22;50874;24.150;-110.320;2023-04-01T07:25:18;19.00;99.90
64501;DHT22;50874;24.150;-110.320;2023-04-01T07:27:46;19.00;99.90
64501;DHT22;50874;24.150;-110.320;2023-04-01T07:30:21;19.00;99.90
64501;DHT22;50874;24.150;-110.320;2023-04-01T07:32:57;19.00;99.90
64501;DHT22;50874;24.150;-110.320;2023-04-01T07:35:48;18.90;99.90
64501;DHT22;50874;24.150;-110.320;2023-04-01T07:48:52;18.90;99.90
64501;DHT22;50874;24.150;-110.320;2023-04-01T07:51:36;18.90;99.90
64501;DHT22;50874;24.150;-110.320;2023-04-01T07:56:41;18.80;99.90
64501;DHT22;50874;24.150;-110.320;2023-04-01T08:04:53;18.80;99.90
64501;DHT22;50874;24.150;-110.320;2023-04-01T08:07:48;18.80;99.90
64501;DHT22;50874;24.150;-110.320;2023-04-01T08:13:21;18.90;99.90
64501;DHT22;50874;24.150;-110.320;2023-04-01T08:15:56;18.90;99.90
64501;DHT22;50874;24.150;-110.320;2023-04-01T08:18:40;18.90;99.90
64501;DHT22;50874;24.150;-110.320;2023-04-01T08:21:23;18.90;99.90
64501;DHT22;50874;24.150;-110.320;2023-04-01T08:23:54;18.80;99.90
64501;DHT22;50874;24.150;-110.320;2023-04-01T08:26:39;18.80;99.90
64501;DHT22;50874;24.150;-110.320;2023-04-01T08:29:18;18.70;99.90
64501;DHT22;50874;24.150;-110.320;2023-04-01T08:34:26;18.60;99.90
64501;DHT22;50874;24.150;-110.320;2023-04-01T08:37:07;18.60;99.90
64501;DHT22;50874;24.150;-110.320;2023-04-01T08:39:48;18.40;99.90
64501;DHT22;50874;24.150;-110.320;2023-04-01T08:51:06;18.20;99.90
64501;DHT22;50874;24.150;-110.320;2023-04-01T08:59:35;18.00;99.90
64501;DHT22;50874;24.150;-110.320;2023-04-01T09:02:28;17.90;99.90
64501;DHT22;50874;24.150;-110.320;2023-04-01T09:05:32;17.80;99.90
64501;DHT22;50874;24.150;-110.320;2023-04-01T09:08:28;17.80;99.90
64501;DHT22;50874;24.150;-110.320;2023-04-01T09:27:29;18.40;99.90
64501;DHT22;50874;24.150;-110.320;2023-04-01T09:35:50;18.80;99.90
64501;DHT22;50874;24.150;-110.320;2023-04-01T09:41:20;18.90;99.90
64501;DHT22;50874;24.150;-110.320;2023-04-01T09:47:03;18.80;99.90
64501;DHT22;50874;24.150;-110.320;2023-04-01T09:49:36;18.80;99.90
64501;DHT22;50874;24.150;-110.320;2023-04-01T09:52:18;18.90;99.90
64501;DHT22;50874;24.150;-110.320;2023-04-01T09:58:02;18.80;99.90
64501;DHT22;50874;24.150;-110.320;2023-04-01T10:04:03;18.80;99.90
64501;DHT22;50874;24.150;-110.320;2023-04-01T10:29:28;18.90;99.90
64501;DHT22;50874;24.150;-110.320;2023-04-01T10:43:00;18.80;99.90
64501;DHT22;50874;24.150;-110.320;2023-04-01T10:46:09;18.80;99.90
64501;DHT22;50874;24.150;-110.320;2023-04-01T10:48:45;18.90;99.90
64501;DHT22;50874;24.150;-110.320;2023-04-01T10:54:40;18.90;99.90
64501;DHT22;50874;24.150;-110.320;2023-04-01T10:58:00;18.90;99.90
64501;DHT22;50874;24.150;-110.320;2023-04-01T11:03:37;18.90;99.90
64501;DHT22;50874;24.150;-110.320;2023-04-01T11:06:26;18.90;99.90
64501;DHT22;50874;24.150;-110.320;2023-04-01T11:14:51;19.00;99.90
64501;DHT22;50874;24.150;-110.320;2023-04-01T11:29:04;19.00;99.90
64501;DHT22;50874;24.150;-110.320;2023-04-01T11:32:02;19.00;99.90
64501;DHT22;50874;24.150;-110.320;2023-04-01T11:40:37;18.90;99.90
64501;DHT22;50874;24.150;-110.320;2023-04-01T11:43:27;18.90;99.90
64501;DHT22;50874;24.150;-110.320;2023-04-01T11:46:17;18.90;99.90
64501;DHT22;50874;24.150;-110.320;2023-04-01T11:51:46;18.80;99.90
64501;DHT22;50874;24.150;-110.320;2023-04-01T12:00:14;19.00;99.90
64501;DHT22;50874;24.150;-110.320;2023-04-01T12:08:31;18.80;99.90
64501;DHT22;50874;24.150;-110.320;2023-04-01T12:11:23;18.60;99.90
64501;DHT22;50874;24.150;-110.320;2023-04-01T12:21:50;18.30;99.90
64501;DHT22;50874;24.150;-110.320;2023-04-01T12:38:24;18.10;99.90
64501;DHT22;50874;24.150;-110.320;2023-04-01T12:43:48;18.00;99.90
64501;DHT22;50874;24.150;-110.320;2023-04-01T12:46:20;17.90;99.90
64501;DHT22;50874;24.150;-110.320;2023-04-01T12:51:45;18.00;99.90
64501;DHT22;50874;24.150;-110.320;2023-04-01T13:08:49;17.70;99.90
64501;DHT22;50874;24.150;-110.320;2023-04-01T13:14:09;17.60;99.90
64501;DHT22;50874;24.150;-110.320;2023-04-01T13:22:16;17.70;99.90
64501;DHT22;50874;24.150;-110.320;2023-04-01T13:24:51;17.70;99.90
64501;DHT22;50874;24.150;-110.320;2023-04-01T13:27:35;17.70;99.90
64501;DHT22;50874;24.150;-110.320;2023-04-01T13:35:40;17.90;99.90
64501;DHT22;50874;24.150;-110.320;2023-04-01T13:38:14;17.90;99.90
64501;DHT22;50874;24.150;-110.320;2023-04-01T13:41:05;18.00;99.90
64501;DHT22;50874;24.150;-110.320;2023-04-01T13:43:43;18.10;99.90
64501;DHT22;50874;24.150;-110.320;2023-04-01T13:54:26;18.20;99.90
64501;DHT22;50874;24.150;-110.320;2023-04-01T13:56:57;18.30;99.90
64501;DHT22;50874;24.150;-110.320;2023-04-01T14:02:40;18.30;99.90
64501;DHT22;50874;24.150;-110.320;2023-04-01T14:08:34;18.30;99.90
64501;DHT22;50874;24.150;-110.320;2023-04-01T14:11:39;18.40;99.90
64501;DHT22;50874;24.150;-110.320;2023-04-01T14:25:32;18.70;99.90
64501;DHT22;50874;24.150;-110.320;2023-04-01T14:48:48;20.90;99.90
64501;DHT22;50874;24.150;-110.320;2023-04-01T14:51:37;21.20;99.90
64501;DHT22;50874;24.150;-110.320;2023-04-01T14:54:14;21.60;99.90
64501;DHT22;50874;24.150;-110.320;2023-04-01T14:56:50;21.90;99.90
64501;DHT22;50874;24.150;-110.320;2023-04-01T15:05:20;22.40;99.90
64501;DHT22;50874;24.150;-110.320;2023-04-01T15:08:08;23.10;99.90
64501;DHT22;50874;24.150;-110.320;2023-04-01T15:11:06;23.40;99.90
64501;DHT22;50874;24.150;-110.320;2023-04-01T15:13:58;23.40;99.90
64501;DHT22;50874;24.150;-110.320;2023-04-01T15:16:39;23.50;99.90
64501;DHT22;50874;24.150;-110.320;2023-04-01T15:24:46;24.00;99.90
64501;DHT22;50874;24.150;-110.320;2023-04-01T15:27:20;24.50;99.90
64501;DHT22;50874;24.150;-110.320;2023-04-01T15:33:04;24.60;99.90
64501;DHT22;50874;24.150;-110.320;2023-04-01T15:43:46;25.00;99.90
64501;DHT22;50874;24.150;-110.320;2023-04-01T15:57:48;25.50;95.00
64501;DHT22;50874;24.150;-110.320;2023-04-01T16:03:20;25.00;95.70
64501;DHT22;50874;24.150;-110.320;2023-04-01T16:14:52;24.80;95.10
64501;DHT22;50874;24.150;-110.320;2023-04-01T16:22:42;26.10;92.20
64501;DHT22;50874;24.150;-110.320;2023-04-01T16:27:47;26.70;92.90
64501;DHT22;50874;24.150;-110.320;2023-04-01T16:30:35;26.80;92.80
64501;DHT22;50874;24.150;-110.320;2023-04-01T16:48:44;28.20;88.60
64501;DHT22;50874;24.150;-110.320;2023-04-01T16:51:09;28.30;87.40
64501;DHT22;50874;24.150;-110.320;2023-04-01T16:53:45;28.10;86.70
64501;DHT22;50874;24.150;-110.320;2023-04-01T16:56:27;27.90;85.50
64501;DHT22;50874;24.150;-110.320;2023-04-01T17:10:00;28.30;84.30
64501;DHT22;50874;24.150;-110.320;2023-04-01T17:17:54;28.40;82.90
64501;DHT22;50874;24.150;-110.320;2023-04-01T17:20:46;28.90;81.70
64501;DHT22;50874;24.150;-110.320;2023-04-01T17:23:46;29.10;80.60
64501;DHT22;50874;24.150;-110.320;2023-04-01T17:26:23;29.50;77.00
64501;DHT22;50874;24.150;-110.320;2023-04-01T17:29:09;29.90;75.70
64501;DHT22;50874;24.150;-110.320;2023-04-01T17:31:50;29.80;75.00
64501;DHT22;50874;24.150;-110.320;2023-04-01T17:34:30;29.00;73.50
64501;DHT22;50874;24.150;-110.320;2023-04-01T17:37:24;29.10;75.60
64501;DHT22;50874;24.150;-110.320;2023-04-01T17:46:03;29.30;74.30
64501;DHT22;50874;24.150;-110.320;2023-04-01T18:00:39;30.50;69.40
64501;DHT22;50874;24.150;-110.320;2023-04-01T18:03:36;30.10;70.60
64501;DHT22;50874;24.150;-110.320;2023-04-01T18:06:19;29.90;69.40
64501;DHT22;50874;24.150;-110.320;2023-04-01T18:09:00;30.10;67.90
64501;DHT22;50874;24.150;-110.320;2023-04-01T18:14:20;30.00;74.20
64501;DHT22;50874;24.150;-110.320;2023-04-01T18:17:11;30.00;71.90
64501;DHT22;50874;24.150;-110.320;2023-04-01T18:22:47;30.50;71.10
64501;DHT22;50874;24.150;-110.320;2023-04-01T18:25:47;30.20;71.20
64501;DHT22;50874;24.150;-110.320;2023-04-01T18:31:15;30.10;67.00
64501;DHT22;50874;24.150;-110.320;2023-04-01T18:36:56;30.10;65.00
64501;DHT22;50874;24.150;-110.320;2023-04-01T18:39:41;30.50;62.10
64501;DHT22;50874;24.150;-110.320;2023-04-01T18:48:38;30.30;62.70
64501;DHT22;50874;24.150;-110.320;2023-04-01T18:54:04;30.50;64.80
64501;DHT22;50874;24.150;-110.320;2023-04-01T18:56:43;30.20;64.30
64501;DHT22;50874;24.150;-110.320;2023-04-01T19:02:17;30.40;63.40
64501;DHT22;50874;24.150;-110.320;2023-04-01T19:05:31;30.50;62.20
64501;DHT22;50874;24.150;-110.320;2023-04-01T19:08:25;30.60;62.00
64501;DHT22;50874;24.150;-110.320;2023-04-01T19:13:40;30.40;64.30
64501;DHT22;50874;24.150;-110.320;2023-04-01T19:30:36;30.30;62.20
64501;DHT22;50874;24.150;-110.320;2023-04-01T19:35:58;30.00;61.90
64501;DHT22;50874;24.150;-110.320;2023-04-01T19:38:40;30.30;60.40
64501;DHT22;50874;24.150;-110.320;2023-04-01T19:46:41;29.60;57.10
64501;DHT22;50874;24.150;-110.320;2023-04-01T19:49:35;29.50;57.10
64501;DHT22;50874;24.150;-110.320;2023-04-01T19:52:20;29.90;56.80
64501;DHT22;50874;24.150;-110.320;2023-04-01T20:00:29;29.40;58.20
64501;DHT22;50874;24.150;-110.320;2023-04-01T20:16:07;30.40;57.00
64501;DHT22;50874;24.150;-110.320;2023-04-01T20:18:59;30.10;57.30
64501;DHT22;50874;24.150;-110.320;2023-04-01T20:21:43;30.40;56.10
64501;DHT22;50874;24.150;-110.320;2023-04-01T20:24:26;29.70;56.80
64501;DHT22;50874;24.150;-110.320;2023-04-01T20:27:08;29.80;56.40
64501;DHT22;50874;24.150;-110.320;2023-04-01T20:29:55;30.00;56.60
64501;DHT22;50874;24.150;-110.320;2023-04-01T20:38:23;31.00;55.30
64501;DHT22;50874;24.150;-110.320;2023-04-01T20:41:13;30.70;55.60
64501;DHT22;50874;24.150;-110.320;2023-04-01T20:46:23;30.90;55.70
64501;DHT22;50874;24.150;-110.320;2023-04-01T20:49:33;30.90;56.00
64501;DHT22;50874;24.150;-110.320;2023-04-01T20:54:56;31.00;56.40
64501;DHT22;50874;24.150;-110.320;2023-04-01T21:03:10;30.80;56.40
64501;DHT22;50874;24.150;-110.320;2023-04-01T21:06:03;31.00;56.90
64501;DHT22;50874;24.150;-110.320;2023-04-01T21:11:37;30.90;56.90
64501;DHT22;50874;24.150;-110.320;2023-04-01T21:17:16;30.90;56.60
64501;DHT22;50874;24.150;-110.320;2023-04-01T21:25:28;30.90;54.90
64501;DHT22;50874;24.150;-110.320;2023-04-01T21:28:07;31.20;54.90
64501;DHT22;50874;24.150;-110.320;2023-04-01T21:36:20;31.00;54.30
64501;DHT22;50874;24.150;-110.320;2023-04-01T21:38:50;30.80;54.00
64501;DHT22;50874;24.150;-110.320;2023-04-01T21:47:29;30.50;53.00
64501;DHT22;50874;24.150;-110.320;2023-04-01T22:09:11;28.90;66.70
64501;DHT22;50874;24.150;-110.320;2023-04-01T22:14:28;29.50;66.20
64501;DHT22;50874;24.150;-110.320;2023-04-01T22:23:20;29.20;68.90
64501;DHT22;50874;24.150;-110.320;2023-04-01T22:25:37;28.70;69.70
64501;DHT22;50874;24.150;-110.320;2023-04-01T22:28:29;28.70;71.50
64501;DHT22;50874;24.150;-110.320;2023-04-01T22:31:02;29.00;70.70
64501;DHT22;50874;24.150;-110.320;2023-04-01T22:33:42;28.90;71.60
64501;DHT22;50874;24.150;-110.320;2023-04-01T22:39:22;29.20;73.50
64501;DHT22;50874;24.150;-110.320;2023-04-01T22:42:17;29.40;72.70
64501;DHT22;50874;24.150;-110.320;2023-04-01T22:53:04;28.80;69.40
64501;DHT22;50874;24.150;-110.320;2023-04-01T22:55:38;29.10;68.00
64501;DHT22;50874;24.150;-110.320;2023-04-01T22:58:12;29.00;66.70
64501;DHT22;50874;24.150;-110.320;2023-04-01T23:00:49;29.10;67.20
64501;DHT22;50874;24.150;-110.320;2023-04-01T23:03:32;29.20;67.00
64501;DHT22;50874;24.150;-110.320;2023-04-01T23:06:01;29.00;68.50
64501;DHT22;50874;24.150;-110.320;2023-04-01T23:11:30;28.70;68.70
64501;DHT22;50874;24.150;-110.320;2023-04-01T23:17:12;28.60;71.10
64501;DHT22;50874;24.150;-110.320;2023-04-01T23:25:36;28.30;73.50
64501;DHT22;50874;24.150;-110.320;2023-04-01T23:36:13;27.90;75.90
64501;DHT22;50874;24.150;-110.320;2023-04-01T23:38:42;27.60;77.20
64501;DHT22;50874;24.150;-110.320;2023-04-01T23:41:23;27.60;77.80
64501;DHT22;50874;24.150;-110.320;2023-04-01T23:44:03;27.70;77.30
64501;DHT22;50874;24.150;-110.320;2023-04-01T23:46:31;27.60;77.40
64501;DHT22;50874;24.150;-110.320;2023-04-01T23:49:01;27.50;78.50
64501;DHT22;50874;24.150;-110.320;2023-04-01T23:51:39;27.40;79.10
64501;DHT22;50874;24.150;-110.320;2023-04-01T23:57:37;27.30;79.00
